Time;durP1;ratioP1;P1;durP2;ratioP2;P2;SDS_P1;SDS_P2;PMS_P1;PMS_P2;Temp;Humidity;BMP_temperature;BMP_pressure;BME280_temperature;BME280_humidity;BME280_pressure;Samples;Min_cycle;Max_cycle;Signal;HPM_P1;HPM_P2
2022/10/28 00:01:16;;;;;;;4.13;1.77;;;18.30;81.30;;;;;;4989486;28;20042;-81
2022/10/28 00:03:46;;;;;;;3.83;1.98;;;18.30;81.30;;;;;;4976986;28;20031;-81
2022/10/28 00:06:24;;;;;;;3.95;1.90;;;18.30;81.30;;;;;;4972488;28;20039;-82
2022/10/28 00:08:51;;;;;;;4.05;2.05;;;18.30;81.30;;;;;;4992412;28;20035;-82
2022/10/28 00:11:25;;;;;;;2.90;1.77;;;18.30;81.30;;;;;;5002069;28;20202;-82
2022/10/28 00:13:59;;;;;;;3.72;2.10;;;18.30;81.40;;;;;;4982585;28;20046;-82
2022/10/28 00:16:28;;;;;;;3.55;2.05;;;18.30;81.40;;;;;;4990964;28;20048;-82
2022/10/28 00:18:54;;;;;;;2.20;1.95;;;18.30;81.40;;;;;;4984825;28;20030;-81
2022/10/28 00:21:23;;;;;;;5.53;2.15;;;18.30;81.40;;;;;;5012602;28;20072;-83
2022/10/28 00:23:50;;;;;;;4.45;2.03;;;18.30;81.40;;;;;;5006112;28;20262;-82
2022/10/28 00:26:18;;;;;;;5.82;2.53;;;18.30;81.50;;;;;;4992124;28;20101;-81
2022/10/28 00:28:47;;;;;;;3.08;1.83;;;18.30;81.50;;;;;;4994936;28;20181;-82
2022/10/28 00:31:17;;;;;;;6.13;2.13;;;18.30;81.50;;;;;;4991299;28;20046;-80
2022/10/28 00:33:45;;;;;;;4.40;2.10;;;18.30;81.50;;;;;;4979044;28;20038;-81
2022/10/28 00:36:15;;;;;;;7.38;2.53;;;18.30;81.60;;;;;;4991068;28;20260;-81
2022/10/28 00:38:43;;;;;;;4.30;2.17;;;18.30;81.60;;;;;;4991371;28;20038;-80
2022/10/28 00:41:13;;;;;;;3.42;2.40;;;18.20;81.40;;;;;;4989286;28;20300;-82
2022/10/28 00:43:43;;;;;;;2.50;1.70;;;18.20;81.40;;;;;;4984990;28;20039;-81
2022/10/28 00:46:24;;;;;;;4.03;2.15;;;18.20;81.40;;;;;;4990541;28;20224;-82
2022/10/28 00:48:57;;;;;;;4.88;2.13;;;18.20;81.50;;;;;;4987475;28;20050;-83
2022/10/28 00:51:25;;;;;;;4.30;2.22;;;18.20;81.40;;;;;;4989512;28;20037;-81
2022/10/28 00:53:55;;;;;;;5.72;2.15;;;18.20;81.40;;;;;;4990307;28;20038;-81
2022/10/28 00:56:25;;;;;;;5.72;1.98;;;18.20;81.40;;;;;;4982230;28;20026;-82
2022/10/28 00:58:58;;;;;;;4.20;1.92;;;18.20;81.40;;;;;;4998119;28;20030;-81
2022/10/28 01:01:24;;;;;;;8.80;2.78;;;18.20;81.40;;;;;;4994500;28;20044;-82
2022/10/28 01:03:50;;;;;;;5.03;1.90;;;18.20;81.40;;;;;;4989860;28;20034;-82
2022/10/28 01:06:16;;;;;;;4.47;2.00;;;18.20;81.40;;;;;;4992247;28;20035;-82
2022/10/28 01:08:42;;;;;;;6.10;2.35;;;18.20;81.40;;;;;;5003615;28;20026;-82
2022/10/28 01:11:36;;;;;;;4.45;1.80;;;18.20;81.40;;;;;;4992040;28;20111;-82
2022/10/28 01:14:15;;;;;;;7.45;2.35;;;18.20;81.40;;;;;;5001843;28;20041;-81
2022/10/28 01:16:50;;;;;;;4.40;2.22;;;18.20;81.40;;;;;;5009597;28;20297;-82
2022/10/28 01:19:45;;;;;;;4.85;1.85;;;18.20;81.40;;;;;;5000588;28;20046;-82
2022/10/28 01:22:24;;;;;;;4.50;2.40;;;18.20;81.40;;;;;;4993138;28;20501;-83
2022/10/28 01:25:02;;;;;;;4.97;1.90;;;18.20;81.40;;;;;;4988231;28;20485;-83
2022/10/28 01:27:43;;;;;;;3.67;2.17;;;18.20;81.40;;;;;;4976056;28;20035;-83
2022/10/28 01:30:19;;;;;;;5.03;1.83;;;18.20;81.30;;;;;;4978665;28;20045;-82
2022/10/28 01:33:09;;;;;;;3.05;1.85;;;18.10;81.20;;;;;;4991410;28;20538;-82
2022/10/28 01:35:51;;;;;;;5.55;2.50;;;18.10;81.20;;;;;;4988598;28;20221;-81
2022/10/28 01:38:35;;;;;;;6.82;2.95;;;18.10;81.30;;;;;;4991124;28;20039;-80
2022/10/28 01:41:13;;;;;;;4.18;1.88;;;18.10;81.30;;;;;;4993789;28;20046;-81
2022/10/28 01:43:55;;;;;;;5.22;2.20;;;18.10;81.30;;;;;;4990045;28;20035;-82
2022/10/28 01:46:45;;;;;;;3.70;2.60;;;18.00;81.20;;;;;;4988337;28;20089;-80
2022/10/28 01:49:18;;;;;;;3.00;2.35;;;18.00;81.20;;;;;;4987882;28;20038;-81
2022/10/28 01:51:48;;;;;;;4.78;2.63;;;18.00;81.30;;;;;;5025265;28;20038;-81
2022/10/28 01:54:18;;;;;;;3.53;1.98;;;18.00;81.30;;;;;;5005007;28;20121;-81
2022/10/28 01:56:45;;;;;;;4.45;2.38;;;18.00;81.30;;;;;;4980223;28;20121;-81
2022/10/28 01:59:16;;;;;;;6.88;2.45;;;17.90;81.10;;;;;;5004469;28;20035;-81
2022/10/28 02:01:42;;;;;;;6.38;2.95;;;18.00;81.40;;;;;;5024609;28;20045;-80
2022/10/28 02:04:08;;;;;;;7.30;2.15;;;17.90;81.20;;;;;;4988601;28;20034;-81
2022/10/28 02:06:38;;;;;;;4.80;2.42;;;17.90;81.30;;;;;;4999384;28;20022;-81
2022/10/28 02:09:23;;;;;;;4.88;1.98;;;17.90;81.30;;;;;;5034525;28;20188;-81
2022/10/28 02:12:02;;;;;;;5.07;2.88;;;17.90;81.30;;;;;;5001683;28;20076;-81
2022/10/28 02:14:37;;;;;;;6.97;2.65;;;17.90;81.30;;;;;;5018060;28;20081;-80
2022/10/28 02:17:41;;;;;;;4.50;2.13;;;17.90;81.30;;;;;;5002504;28;20042;-82
2022/10/28 02:20:23;;;;;;;4.93;2.88;;;17.90;81.30;;;;;;5009742;28;20050;-80
2022/10/28 02:23:06;;;;;;;5.90;2.53;;;17.90;81.30;;;;;;4995064;28;20670;-80
2022/10/28 02:25:40;;;;;;;6.45;2.95;;;17.80;81.10;;;;;;5009144;28;20098;-80
2022/10/28 02:28:15;;;;;;;6.45;3.15;;;17.80;81.10;;;;;;4992546;28;20033;-80
2022/10/28 02:30:47;;;;;;;9.25;2.03;;;17.80;81.20;;;;;;5003946;28;20124;-80
2022/10/28 02:33:20;;;;;;;3.47;2.15;;;17.80;81.20;;;;;;4999863;28;20033;-80
2022/10/28 02:35:56;;;;;;;10.13;2.80;;;17.70;81.10;;;;;;5011489;28;20057;-81
2022/10/28 02:38:27;;;;;;;6.93;3.08;;;17.70;81.10;;;;;;5002052;28;20426;-80
2022/10/28 02:40:58;;;;;;;4.93;2.10;;;17.70;81.20;;;;;;4993670;28;20050;-80
2022/10/28 02:43:28;;;;;;;5.90;2.33;;;17.60;81.10;;;;;;4997016;28;20046;-81
2022/10/28 02:46:00;;;;;;;5.30;1.83;;;17.70;81.30;;;;;;5017298;28;20548;-81
2022/10/28 02:48:32;;;;;;;4.90;2.60;;;17.60;81.10;;;;;;5021549;28;20056;-80
2022/10/28 02:51:12;;;;;;;6.15;2.20;;;17.70;81.40;;;;;;4995747;28;20132;-81
2022/10/28 02:54:03;;;;;;;3.60;1.90;;;17.70;81.40;;;;;;5006415;28;20109;-80
2022/10/28 02:56:33;;;;;;;6.43;2.45;;;17.60;81.20;;;;;;5009442;28;20041;-79
2022/10/28 02:59:00;;;;;;;7.82;2.42;;;17.60;81.20;;;;;;5051098;28;20045;-80
2022/10/28 03:01:26;;;;;;;4.75;1.63;;;17.70;81.40;;;;;;5049224;28;20037;-79
2022/10/28 03:03:52;;;;;;;3.78;1.77;;;17.70;81.40;;;;;;4986770;28;20034;-81
2022/10/28 03:06:17;;;;;;;6.75;2.95;;;17.70;81.90;;;;;;5014578;28;20108;-80
2022/10/28 03:08:44;;;;;;;5.68;1.98;;;17.70;81.40;;;;;;5015624;28;20026;-81
2022/10/28 03:11:10;;;;;;;3.55;1.90;;;17.70;81.40;;;;;;5024213;28;20033;-82
2022/10/28 03:13:39;;;;;;;3.63;1.98;;;17.70;81.40;;;;;;5015362;28;20046;-80
2022/10/28 03:16:05;;;;;;;6.82;2.00;;;17.70;81.30;;;;;;4984586;28;20027;-80
2022/10/28 03:18:32;;;;;;;2.88;1.70;;;17.80;81.50;;;;;;5006579;28;20034;-81
2022/10/28 03:21:02;;;;;;;2.45;1.52;;;17.80;81.50;;;;;;5009921;28;20038;-81
2022/10/28 03:23:28;;;;;;;7.47;2.45;;;17.80;81.40;;;;;;5006584;28;20036;-80
2022/10/28 03:28:50;;;;;;;3.80;2.08;;;17.80;81.40;;;;;;5003143;23;20059;-73
2022/10/28 03:31:16;;;;;;;5.43;2.13;;;17.80;81.40;;;;;;4937533;28;20027;-74
2022/10/28 03:33:42;;;;;;;4.18;1.95;;;17.80;81.30;;;;;;4935803;28;20035;-73
2022/10/28 03:36:08;;;;;;;4.00;2.00;;;17.80;81.30;;;;;;4925912;29;20518;-74
2022/10/28 03:38:33;;;;;;;2.97;1.95;;;17.80;81.30;;;;;;4946820;28;20147;-73
2022/10/28 03:40:59;;;;;;;4.82;2.58;;;17.80;81.30;;;;;;4951337;29;20049;-74
2022/10/28 03:43:25;;;;;;;3.20;1.52;;;17.80;81.20;;;;;;4938999;29;20036;-73
2022/10/28 03:45:51;;;;;;;3.15;1.75;;;17.80;81.20;;;;;;4933359;28;20031;-73
2022/10/28 03:48:17;;;;;;;4.28;2.30;;;17.80;81.20;;;;;;4948493;28;20039;-74
2022/10/28 03:50:43;;;;;;;4.28;1.75;;;17.90;81.40;;;;;;4951093;29;20421;-73
2022/10/28 03:53:09;;;;;;;3.33;1.48;;;17.90;81.30;;;;;;4933722;29;20034;-74
2022/10/28 03:55:35;;;;;;;2.83;1.80;;;17.80;81.10;;;;;;4929726;29;20294;-73
2022/10/28 03:58:01;;;;;;;6.90;2.63;;;17.90;81.30;;;;;;4948837;29;20024;-73
2022/10/28 04:00:27;;;;;;;3.42;1.80;;;17.90;81.30;;;;;;4932914;29;20031;-73
2022/10/28 04:02:53;;;;;;;4.30;1.58;;;17.90;81.30;;;;;;4932778;29;20517;-73
2022/10/28 04:05:20;;;;;;;3.95;1.40;;;17.90;81.30;;;;;;4942504;29;20045;-74
2022/10/28 04:07:46;;;;;;;5.05;2.22;;;17.90;81.20;;;;;;4950659;29;20035;-73
2022/10/28 04:10:13;;;;;;;5.88;2.40;;;17.90;81.20;;;;;;4933594;29;20490;-73
2022/10/28 04:12:39;;;;;;;4.40;1.90;;;17.90;81.20;;;;;;4930280;29;20086;-74
2022/10/28 04:15:05;;;;;;;4.20;1.98;;;17.90;81.20;;;;;;4939796;29;20020;-74
2022/10/28 04:17:33;;;;;;;4.28;2.00;;;18.00;81.40;;;;;;4940525;29;20036;-74
2022/10/28 04:19:59;;;;;;;6.55;2.85;;;18.00;81.30;;;;;;4906435;29;20653;-74
2022/10/28 04:22:25;;;;;;;5.00;1.60;;;18.00;81.40;;;;;;4947006;28;20094;-74
2022/10/28 04:24:53;;;;;;;3.40;1.50;;;18.10;81.50;;;;;;4943457;29;20400;-73
2022/10/28 04:27:19;;;;;;;3.63;2.20;;;18.10;81.50;;;;;;4939818;28;20553;-73
2022/10/28 04:29:45;;;;;;;2.72;1.88;;;18.10;81.50;;;;;;4945655;29;20043;-74
2022/10/28 04:32:11;;;;;;;4.18;1.90;;;18.10;81.40;;;;;;4942859;28;20087;-74
2022/10/28 04:34:37;;;;;;;8.40;2.03;;;18.10;81.40;;;;;;4950007;28;20098;-74
2022/10/28 04:37:03;;;;;;;3.83;1.88;;;18.10;81.40;;;;;;4932881;29;20038;-74
2022/10/28 04:39:29;;;;;;;5.18;2.30;;;18.20;81.60;;;;;;4950153;28;20026;-73
2022/10/28 04:41:55;;;;;;;4.07;1.80;;;18.10;81.30;;;;;;4946110;29;20584;-74
2022/10/28 04:44:20;;;;;;;2.92;1.70;;;18.20;81.50;;;;;;4944600;29;20118;-74
2022/10/28 04:46:46;;;;;;;6.65;2.33;;;18.20;81.60;;;;;;4949339;29;20043;-74
2022/10/28 04:49:12;;;;;;;3.53;2.15;;;18.20;81.60;;;;;;4910533;29;20368;-74
2022/10/28 04:51:38;;;;;;;4.78;1.90;;;18.20;81.60;;;;;;4928464;28;20050;-74
2022/10/28 04:54:04;;;;;;;4.45;2.10;;;18.20;81.60;;;;;;4940722;28;20418;-74
2022/10/28 04:56:32;;;;;;;6.15;2.22;;;18.20;81.60;;;;;;4946167;29;20035;-74
2022/10/28 04:58:58;;;;;;;6.00;2.78;;;18.20;81.60;;;;;;4911669;29;20038;-74
2022/10/28 05:01:24;;;;;;;4.75;1.90;;;18.20;81.70;;;;;;4945373;28;20441;-74
2022/10/28 05:03:50;;;;;;;3.42;1.40;;;18.20;81.70;;;;;;4940292;28;20502;-74
2022/10/28 05:06:15;;;;;;;4.22;1.85;;;18.20;81.70;;;;;;4928762;29;20502;-74
2022/10/28 05:08:41;;;;;;;3.92;1.70;;;18.20;81.70;;;;;;4938205;28;20070;-74
2022/10/28 05:11:07;;;;;;;7.93;2.20;;;18.30;81.90;;;;;;4925635;29;20047;-74
2022/10/28 05:13:33;;;;;;;8.65;2.90;;;18.30;82.00;;;;;;4941243;28;20074;-74
2022/10/28 05:15:59;;;;;;;4.82;1.95;;;18.30;82.00;;;;;;4942557;29;20113;-74
2022/10/28 05:18:25;;;;;;;7.93;2.17;;;18.30;82.00;;;;;;4926588;29;20035;-74
2022/10/28 05:20:53;;;;;;;4.90;2.50;;;18.30;82.00;;;;;;4945103;28;20035;-74
2022/10/28 05:23:23;;;;;;;6.45;2.78;;;18.30;82.00;;;;;;4941503;28;20085;-73
2022/10/28 05:25:49;;;;;;;3.47;2.00;;;18.30;82.00;;;;;;4945444;29;20035;-73
2022/10/28 05:28:15;;;;;;;4.72;2.13;;;18.30;82.00;;;;;;4942737;29;20577;-74
2022/10/28 05:30:42;;;;;;;7.00;1.80;;;18.30;82.00;;;;;;4939242;29;20027;-74
2022/10/28 05:33:09;;;;;;;3.67;2.38;;;18.40;82.70;;;;;;4939477;29;20030;-74
2022/10/28 05:35:39;;;;;;;10.00;3.45;;;18.40;82.20;;;;;;4945974;29;20031;-74
2022/10/28 05:38:05;;;;;;;4.65;2.63;;;18.40;82.20;;;;;;4926025;29;20035;-74
2022/10/28 05:40:32;;;;;;;5.70;2.50;;;18.40;82.20;;;;;;4948952;28;20043;-74
2022/10/28 05:43:00;;;;;;;5.32;2.05;;;18.40;82.10;;;;;;4949622;28;20078;-74
2022/10/28 05:45:26;;;;;;;6.63;2.50;;;18.40;82.10;;;;;;4945071;28;20045;-74
2022/10/28 05:47:52;;;;;;;6.53;2.35;;;18.40;82.10;;;;;;4938808;28;20082;-74
2022/10/28 05:50:19;;;;;;;6.50;2.03;;;18.40;82.70;;;;;;4949163;29;20046;-74
2022/10/28 05:52:50;;;;;;;5.93;2.60;;;18.40;82.10;;;;;;4948979;28;20023;-73
2022/10/28 05:55:18;;;;;;;7.50;2.55;;;18.40;82.20;;;;;;4947079;28;20041;-74
2022/10/28 05:57:45;;;;;;;5.38;2.38;;;18.40;82.20;;;;;;4928020;29;20027;-75
2022/10/28 06:00:12;;;;;;;9.02;3.67;;;18.40;82.20;;;;;;4949314;29;20035;-73
2022/10/28 06:02:41;;;;;;;9.02;3.58;;;18.50;82.40;;;;;;4947876;28;20023;-75
2022/10/28 06:05:08;;;;;;;6.10;2.38;;;18.40;82.20;;;;;;4948660;29;20036;-74
2022/10/28 06:07:34;;;;;;;8.95;3.53;;;18.40;82.30;;;;;;4949062;29;20441;-78
2022/10/28 06:10:01;;;;;;;10.73;3.53;;;18.40;82.50;;;;;;4946530;29;20031;-79
2022/10/28 06:12:27;;;;;;;7.35;3.47;;;18.40;82.60;;;;;;4931490;29;20035;-86
2022/10/28 06:14:53;;;;;;;9.57;3.58;;;18.40;82.80;;;;;;4950920;28;20035;-78
2022/10/28 06:17:18;;;;;;;7.07;3.10;;;18.40;82.90;;;;;;4948272;29;20051;-76
2022/10/28 06:19:44;;;;;;;8.40;3.47;;;18.40;83.10;;;;;;4936900;28;20038;-75
2022/10/28 06:22:11;;;;;;;7.55;3.40;;;18.40;83.20;;;;;;4927570;29;20038;-76
2022/10/28 06:24:38;;;;;;;10.13;3.42;;;18.40;83.30;;;;;;4948263;29;20077;-77
2022/10/28 06:27:04;;;;;;;8.95;2.83;;;18.40;83.40;;;;;;4944977;28;20972;-76
2022/10/28 06:29:31;;;;;;;7.47;2.20;;;18.40;83.50;;;;;;4946731;28;20046;-75
2022/10/28 06:31:57;;;;;;;6.57;3.35;;;18.40;83.70;;;;;;4913012;29;20035;-75
2022/10/28 06:34:23;;;;;;;6.55;3.20;;;18.30;83.50;;;;;;4936086;29;20023;-75
2022/10/28 06:36:49;;;;;;;6.50;2.42;;;18.30;83.50;;;;;;4926341;29;20051;-75
2022/10/28 06:39:15;;;;;;;5.25;2.42;;;18.30;83.70;;;;;;4931403;29;20039;-75
2022/10/28 06:41:41;;;;;;;4.50;1.98;;;18.30;83.70;;;;;;4929990;28;20159;-75
2022/10/28 06:44:06;;;;;;;5.53;2.05;;;18.30;83.70;;;;;;4936145;29;20052;-75
2022/10/28 06:46:33;;;;;;;6.53;2.55;;;18.20;83.60;;;;;;4930619;28;20439;-77
2022/10/28 06:49:01;;;;;;;3.17;1.77;;;18.20;83.60;;;;;;4946332;28;20447;-77
2022/10/28 06:51:28;;;;;;;5.60;1.95;;;18.10;84.00;;;;;;4929622;29;20470;-76
2022/10/28 06:53:54;;;;;;;5.45;1.77;;;18.10;83.50;;;;;;4946315;28;20039;-77
2022/10/28 06:56:20;;;;;;;4.68;1.80;;;18.10;83.60;;;;;;4942539;28;20033;-76
2022/10/28 06:58:51;;;;;;;4.47;1.33;;;18.10;83.60;;;;;;4944824;28;20032;-76
2022/10/28 07:01:17;;;;;;;5.07;1.60;;;18.10;83.70;;;;;;4947434;29;20039;-76
2022/10/28 07:03:43;;;;;;;2.97;1.60;;;18.00;83.50;;;;;;4947049;29;20113;-76
2022/10/28 07:06:09;;;;;;;2.95;1.40;;;18.00;83.60;;;;;;4939142;28;20409;-76
2022/10/28 07:08:35;;;;;;;3.67;1.45;;;18.00;83.60;;;;;;4947646;29;20055;-77
2022/10/28 07:11:01;;;;;;;4.85;1.98;;;17.90;83.50;;;;;;4947739;29;20058;-76
2022/10/28 07:13:28;;;;;;;3.15;1.23;;;17.90;83.50;;;;;;4930767;29;20315;-77
2022/10/28 07:15:56;;;;;;;5.38;1.65;;;17.90;83.50;;;;;;4923313;29;20035;-75
2022/10/28 07:18:23;;;;;;;3.55;1.42;;;17.90;83.50;;;;;;4929304;29;20027;-75
2022/10/28 07:20:49;;;;;;;3.88;1.33;;;17.80;83.30;;;;;;4947807;29;20032;-78
2022/10/28 07:23:16;;;;;;;3.70;1.38;;;17.80;83.30;;;;;;4930481;29;20325;-75
2022/10/28 07:25:41;;;;;;;3.33;1.00;;;17.80;83.20;;;;;;4942161;29;20031;-75
2022/10/28 07:28:08;;;;;;;4.03;2.03;;;17.80;83.10;;;;;;4944441;28;20058;-75
2022/10/28 07:30:34;;;;;;;7.63;1.20;;;17.80;83.00;;;;;;4911074;29;20035;-75
2022/10/28 07:33:00;;;;;;;4.95;1.33;;;17.80;82.90;;;;;;4938909;28;20062;-73
2022/10/28 07:35:30;;;;;;;6.03;1.80;;;17.80;82.90;;;;;;4945417;28;20031;-73
2022/10/28 07:37:59;;;;;;;3.28;1.20;;;17.80;82.90;;;;;;4929156;29;20024;-75
2022/10/28 07:40:25;;;;;;;6.65;1.30;;;17.80;82.80;;;;;;4945180;29;20105;-73
2022/10/28 07:42:51;;;;;;;3.67;1.25;;;17.80;82.80;;;;;;4929803;29;20027;-74
2022/10/28 07:45:17;;;;;;;4.57;1.20;;;17.80;82.70;;;;;;4945656;29;20106;-75
2022/10/28 07:47:43;;;;;;;4.53;1.90;;;17.80;82.60;;;;;;4929405;29;20031;-75
2022/10/28 07:50:09;;;;;;;4.22;1.00;;;17.80;82.50;;;;;;4947093;28;20081;-74
2022/10/28 07:52:36;;;;;;;4.32;1.20;;;17.80;82.50;;;;;;4947346;28;20035;-74
2022/10/28 07:55:04;;;;;;;2.65;0.93;;;17.70;82.30;;;;;;4920624;29;20032;-74
2022/10/28 07:57:30;;;;;;;5.82;1.98;;;17.80;82.40;;;;;;4942541;28;20034;-73
2022/10/28 07:59:57;;;;;;;2.15;1.13;;;17.80;82.30;;;;;;4946521;28;20035;-74
2022/10/28 08:02:24;;;;;;;4.30;1.90;;;17.80;82.20;;;;;;4945869;28;20035;-73
2022/10/28 08:04:50;;;;;;;3.03;1.00;;;17.80;82.10;;;;;;4932532;29;20031;-74
2022/10/28 08:07:16;;;;;;;4.32;1.10;;;17.80;82.00;;;;;;4946672;28;20038;-74
2022/10/28 08:09:42;;;;;;;3.92;0.90;;;17.70;81.70;;;;;;4946606;28;20031;-75
2022/10/28 08:12:11;;;;;;;5.07;1.40;;;17.70;81.50;;;;;;4929779;29;20094;-76
2022/10/28 08:14:37;;;;;;;3.25;1.05;;;17.70;81.50;;;;;;4946803;29;20532;-77
2022/10/28 08:17:03;;;;;;;6.30;1.63;;;17.70;81.40;;;;;;4941829;28;20042;-77
2022/10/28 08:19:28;;;;;;;3.90;1.40;;;17.70;81.30;;;;;;4925686;29;20645;-77
2022/10/28 08:21:55;;;;;;;2.20;0.93;;;17.70;81.30;;;;;;4947094;28;20080;-78
2022/10/28 08:24:21;;;;;;;2.58;1.17;;;17.70;81.30;;;;;;4946298;28;20037;-77
2022/10/28 08:26:47;;;;;;;3.40;1.40;;;17.70;81.40;;;;;;4938115;29;20035;-78
2022/10/28 08:29:13;;;;;;;2.88;1.45;;;17.70;81.40;;;;;;4945181;29;20392;-82
2022/10/28 08:31:39;;;;;;;4.57;1.25;;;17.70;81.30;;;;;;4945702;29;20558;-76
2022/10/28 08:34:06;;;;;;;6.43;1.63;;;17.70;81.30;;;;;;4918238;28;20422;-76
2022/10/28 08:36:32;;;;;;;4.57;1.58;;;17.70;81.20;;;;;;4946342;28;20035;-76
2022/10/28 08:39:00;;;;;;;5.80;1.52;;;17.70;81.10;;;;;;4946110;29;20070;-77
2022/10/28 08:41:56;;;;;;;4.03;1.83;;;17.70;81.00;;;;;;4924869;29;20491;-78
2022/10/28 08:44:31;;;;;;;5.75;1.33;;;17.70;80.90;;;;;;4934990;29;20202;-76
2022/10/28 08:47:25;;;;;;;3.42;1.30;;;17.70;80.90;;;;;;4945462;28;20027;-77
2022/10/28 08:49:58;;;;;;;4.18;1.35;;;17.70;80.90;;;;;;4927441;29;20042;-78
2022/10/28 08:52:30;;;;;;;5.53;1.40;;;17.70;80.80;;;;;;4946602;28;20031;-78
2022/10/28 08:55:06;;;;;;;2.13;0.90;;;17.70;80.80;;;;;;4945930;28;20035;-78
2022/10/28 08:57:52;;;;;;;3.55;1.30;;;17.70;80.80;;;;;;4941762;29;20439;-78
2022/10/28 09:00:21;;;;;;;2.15;0.75;;;17.70;80.80;;;;;;4946614;29;20043;-78
2022/10/28 09:02:50;;;;;;;6.18;1.90;;;17.80;80.90;;;;;;4945520;28;20043;-79
2022/10/28 09:05:24;;;;;;;4.32;1.60;;;17.70;80.60;;;;;;4905513;29;20039;-77
2022/10/28 09:07:51;;;;;;;5.22;1.42;;;17.80;80.70;;;;;;4935189;29;20422;-78
2022/10/28 09:10:30;;;;;;;5.88;1.02;;;17.80;80.60;;;;;;4946240;28;20035;-80
2022/10/28 09:13:02;;;;;;;4.15;1.13;;;17.80;80.50;;;;;;4944842;28;20039;-76
2022/10/28 09:16:05;;;;;;;5.55;1.40;;;17.70;80.20;;;;;;4939973;28;20031;-76
2022/10/28 09:18:51;;;;;;;4.35;1.08;;;17.70;80.10;;;;;;4932739;28;20041;-76
2022/10/28 09:21:39;;;;;;;4.00;0.95;;;17.70;80.10;;;;;;4945852;28;20057;-76
2022/10/28 09:24:19;;;;;;;4.82;0.98;;;17.70;80.10;;;;;;4935363;28;20510;-76
2022/10/28 09:26:52;;;;;;;3.50;1.20;;;17.70;80.10;;;;;;4946353;28;20031;-76
2022/10/28 09:29:47;;;;;;;4.07;0.90;;;17.70;80.00;;;;;;4945469;29;20049;-78
2022/10/28 09:32:27;;;;;;;4.05;1.00;;;17.80;80.10;;;;;;4942537;28;20039;-77
2022/10/28 09:34:56;;;;;;;5.05;1.30;;;17.80;80.00;;;;;;4944225;28;20032;-77
2022/10/28 09:37:31;;;;;;;7.10;1.63;;;17.80;79.80;;;;;;4944090;28;20035;-76
2022/10/28 09:40:29;;;;;;;11.82;1.92;;;17.90;79.80;;;;;;4944258;28;20093;-82
2022/10/28 09:43:16;;;;;;;6.57;1.88;;;18.00;79.80;;;;;;4923296;29;20043;-77
2022/10/28 09:45:45;;;;;;;4.40;1.08;;;18.00;79.60;;;;;;4944809;28;20359;-77
2022/10/28 09:48:20;;;;;;;4.22;0.82;;;18.00;79.40;;;;;;4944029;29;20035;-77
2022/10/28 09:50:50;;;;;;;3.92;1.33;;;18.10;79.50;;;;;;4932854;29;20046;-75
2022/10/28 09:53:32;;;;;;;7.00;1.20;;;18.10;79.50;;;;;;4940858;29;20508;-75
2022/10/28 09:55:58;;;;;;;4.32;1.02;;;18.10;79.40;;;;;;4945640;28;20039;-75
2022/10/28 09:58:24;;;;;;;5.18;0.90;;;18.10;79.40;;;;;;4937089;29;20082;-75
2022/10/28 10:00:51;;;;;;;2.58;0.88;;;18.10;79.40;;;;;;4928176;29;20082;-76
2022/10/28 10:03:17;;;;;;;3.03;1.20;;;18.10;79.60;;;;;;4924262;29;20082;-76
2022/10/28 10:05:48;;;;;;;2.63;1.00;;;18.20;79.90;;;;;;4936239;29;20475;-76
2022/10/28 10:08:16;;;;;;;2.75;1.02;;;18.30;80.20;;;;;;4944862;28;20031;-75
2022/10/28 10:11:03;;;;;;;5.82;0.90;;;18.40;80.40;;;;;;4927877;29;20109;-73
2022/10/28 10:13:40;;;;;;;4.55;1.20;;;18.40;80.40;;;;;;4933593;29;20283;-73
2022/10/28 10:16:18;;;;;;;6.28;1.15;;;18.40;80.20;;;;;;4928808;29;20028;-75
2022/10/28 10:18:52;;;;;;;5.53;2.20;;;18.50;80.30;;;;;;4943230;28;20035;-79
2022/10/28 10:21:39;;;;;;;5.07;0.90;;;18.60;80.30;;;;;;4928980;29;20054;-75
2022/10/28 10:24:32;;;;;;;6.82;1.45;;;18.70;80.40;;;;;;4942328;28;20106;-76
2022/10/28 10:27:18;;;;;;;1.85;0.70;;;18.80;80.50;;;;;;4940035;29;20035;-74
2022/10/28 10:29:50;;;;;;;4.07;1.30;;;18.80;80.40;;;;;;4947053;29;20403;-75
2022/10/28 10:32:27;;;;;;;4.88;1.10;;;18.80;80.20;;;;;;4945755;28;20039;-76
2022/10/28 10:35:17;;;;;;;7.72;1.40;;;18.90;80.20;;;;;;4921198;29;20035;-76
2022/10/28 10:37:46;;;;;;;3.88;1.35;;;19.00;80.30;;;;;;4936190;29;20074;-76
2022/10/28 10:40:21;;;;;;;3.97;1.30;;;19.00;80.10;;;;;;4931456;28;20050;-75
2022/10/28 10:42:48;;;;;;;4.55;1.00;;;19.10;80.10;;;;;;4931456;29;20035;-75
2022/10/28 10:45:14;;;;;;;6.97;2.15;;;19.20;80.00;;;;;;4948486;29;20027;-76
2022/10/28 10:47:39;;;;;;;4.53;1.33;;;19.20;79.60;;;;;;4929460;29;20043;-78
2022/10/28 10:50:21;;;;;;;4.05;1.15;;;19.30;79.50;;;;;;4947398;28;20497;-76
2022/10/28 10:52:53;;;;;;;4.47;1.10;;;19.30;78.90;;;;;;4931452;29;20046;-77
2022/10/28 10:55:27;;;;;;;4.65;1.73;;;19.40;78.90;;;;;;4940067;29;20024;-75
2022/10/28 10:57:53;;;;;;;3.88;1.10;;;19.40;78.70;;;;;;4908002;29;20046;-76
2022/10/28 11:00:22;;;;;;;4.65;1.50;;;19.40;78.50;;;;;;4947914;29;20513;-76
2022/10/28 11:02:48;;;;;;;5.80;1.45;;;19.30;78.20;;;;;;4923428;29;20101;-76
2022/10/28 11:05:20;;;;;;;3.38;0.90;;;19.30;78.60;;;;;;4947928;29;20031;-77
2022/10/28 11:07:49;;;;;;;5.07;1.35;;;19.30;77.80;;;;;;4941741;28;20039;-77
2022/10/28 11:10:28;;;;;;;3.60;1.02;;;19.30;77.60;;;;;;4947996;29;20046;-76
2022/10/28 11:13:01;;;;;;;6.63;1.63;;;19.30;77.30;;;;;;4948321;29;20505;-76
2022/10/28 11:15:29;;;;;;;3.88;0.90;;;19.30;77.10;;;;;;4944259;28;20478;-75
2022/10/28 11:18:08;;;;;;;7.70;1.65;;;19.40;77.00;;;;;;4929301;28;20031;-75
2022/10/28 11:20:59;;;;;;;4.30;1.60;;;19.40;76.60;;;;;;4940082;29;20498;-75
2022/10/28 11:23:44;;;;;;;5.00;1.13;;;19.50;76.50;;;;;;4933592;29;20039;-75
2022/10/28 11:26:14;;;;;;;5.85;1.77;;;19.50;76.20;;;;;;4948414;28;20042;-78
2022/10/28 11:28:42;;;;;;;6.30;1.33;;;19.50;76.10;;;;;;4928507;29;20043;-78
2022/10/28 11:31:11;;;;;;;3.00;1.13;;;19.60;76.10;;;;;;4913240;29;20046;-81
2022/10/28 11:33:46;;;;;;;4.70;1.15;;;19.60;75.90;;;;;;4946596;29;20398;-81
2022/10/28 11:36:24;;;;;;;3.83;1.20;;;19.60;75.60;;;;;;4937891;28;20039;-79
2022/10/28 11:39:18;;;;;;;3.95;1.20;;;19.60;75.40;;;;;;4947178;29;20494;-79
2022/10/28 11:42:25;;;;;;;3.50;1.10;;;19.60;75.20;;;;;;4936166;29;20091;-74
2022/10/28 11:44:58;;;;;;;4.57;1.67;;;19.70;75.30;;;;;;4910908;28;20091;-74
2022/10/28 11:47:37;;;;;;;2.38;0.75;;;19.60;75.40;;;;;;4945666;29;20039;-77
2022/10/28 11:50:24;;;;;;;3.47;1.23;;;19.70;75.90;;;;;;4945382;28;20089;-75
2022/10/28 11:53:16;;;;;;;4.40;1.30;;;19.80;76.30;;;;;;4930296;29;20042;-78
2022/10/28 11:56:15;;;;;;;4.13;1.13;;;19.80;76.60;;;;;;4933719;28;20484;-74
2022/10/28 11:58:59;;;;;;;3.22;1.20;;;19.80;76.40;;;;;;4932517;29;20289;-74
2022/10/28 12:01:31;;;;;;;7.05;1.23;;;19.90;76.60;;;;;;4939127;29;20044;-75
2022/10/28 12:04:19;;;;;;;4.00;0.80;;;19.90;76.60;;;;;;4945917;28;20031;-75
2022/10/28 12:07:17;;;;;;;4.93;1.30;;;20.00;76.80;;;;;;4929918;29;20054;-75
2022/10/28 12:10:00;;;;;;;3.92;1.40;;;20.10;76.80;;;;;;4947224;29;20046;-74
2022/10/28 12:12:44;;;;;;;2.42;0.70;;;20.20;76.90;;;;;;4945469;29;20164;-75
2022/10/28 12:15:20;;;;;;;3.00;1.20;;;20.30;76.70;;;;;;4918047;28;20035;-74
2022/10/28 12:18:33;;;;;;;5.68;1.70;;;20.40;76.60;;;;;;4912501;29;20035;-75
2022/10/28 12:21:26;;;;;;;5.37;1.53;;;20.50;76.30;;;;;;4858018;29;20560;-74
2022/10/28 12:23:54;;;;;;;5.25;1.35;;;20.60;76.10;;;;;;4947204;29;20284;-74
2022/10/28 12:26:24;;;;;;;5.38;1.08;;;20.80;76.20;;;;;;4944094;28;20047;-74
2022/10/28 12:28:57;;;;;;;3.70;1.00;;;20.90;76.00;;;;;;4939712;28;20047;-73
2022/10/28 12:31:41;;;;;;;2.78;1.02;;;20.90;75.70;;;;;;4945063;29;20412;-73
2022/10/28 12:34:16;;;;;;;2.30;0.88;;;20.90;75.60;;;;;;4936179;28;20031;-74
2022/10/28 12:36:47;;;;;;;2.95;1.05;;;21.00;75.50;;;;;;4926232;29;20141;-74
2022/10/28 12:39:26;;;;;;;3.22;1.20;;;21.10;75.50;;;;;;4946534;29;20038;-73
2022/10/28 12:42:19;;;;;;;4.15;1.00;;;21.20;75.40;;;;;;4946640;28;20043;-74
2022/10/28 12:44:45;;;;;;;;;;;21.20;75.10;;;;;;4929307;29;20842;-74
2022/10/28 12:47:27;;;;;;;5.30;1.42;;;21.30;75.10;;;;;;4945741;28;20296;-75
2022/10/28 12:50:18;;;;;;;2.22;0.90;;;21.40;75.10;;;;;;4946630;29;20039;-74
2022/10/28 12:53:00;;;;;;;2.95;0.90;;;21.60;75.00;;;;;;4899952;29;20152;-74
2022/10/28 12:55:50;;;;;;;6.00;1.00;;;21.60;74.40;;;;;;4944379;28;20804;-74
2022/10/28 12:58:28;;;;;;;4.20;1.48;;;21.80;74.30;;;;;;4936191;29;20030;-75
2022/10/28 13:00:59;;;;;;;3.95;1.70;;;21.80;74.20;;;;;;4943995;28;20451;-75
2022/10/28 13:03:25;;;;;;;3.40;0.98;;;21.90;74.20;;;;;;4935038;29;20094;-76
2022/10/28 13:06:10;;;;;;;2.53;1.00;;;21.90;74.10;;;;;;4945313;28;20090;-74
2022/10/28 13:08:48;;;;;;;2.17;0.77;;;22.00;73.70;;;;;;4939466;29;20051;-74
2022/10/28 13:11:20;;;;;;;3.78;1.05;;;22.10;73.80;;;;;;4940368;29;20024;-74
2022/10/28 13:14:04;;;;;;;5.10;1.40;;;22.10;73.40;;;;;;4940300;29;20046;-75
2022/10/28 13:17:21;;;;;;;3.13;1.20;;;22.10;72.90;;;;;;4944882;28;20521;-74